Chesnee, South Carolina
Current Conditions -  °F | °C
As of 11:55 PM on Thursday 30 Oct 2014 (Local Time) from KEHO Reporting Station
Clear Clear  
Wind Chill: 44°   Ceiling: Unl
Heat Index: 44°   Visibility: 10mi
Dew Point: 40°   Wind: 3mph
Humidity: 88%   Direction: 20°NNE
Pressure: 29.98"   Gusts: NA
Location:  35.15°N, 81.86°W
Report Text: KEHO 310355Z AUTO 02003KT 10SM CLR 06/05 A2998 RMK AO2 T00640046
Loading
Personal Weather Stations






























Interactive Weather Map New forecast layout! Learn more

10-Day Weather Forecast

Advertisements
Track Severe Weather on mobile